Time;durP1;ratioP1;P1;durP2;ratioP2;P2;SDS_P1;SDS_P2;PMS_P1;PMS_P2;Temp;Humidity;BMP_temperature;BMP_pressure;BME280_temperature;BME280_humidity;BME280_pressure;Samples;Min_cycle;Max_cycle;Signal;HPM_P1;HPM_P2
2023/07/18 00:01:31;;;;;;;10.27;9.98;;;17.90;99.90;;;;;;5083312;28;20260;-85
2023/07/18 00:03:59;;;;;;;9.80;9.50;;;17.80;99.90;;;;;;5082475;28;20238;-86
2023/07/18 00:06:27;;;;;;;9.95;9.65;;;17.80;99.90;;;;;;5083982;28;20218;-85
2023/07/18 00:08:55;;;;;;;9.57;9.27;;;17.80;99.90;;;;;;5096658;28;20222;-85
2023/07/18 00:11:23;;;;;;;9.73;9.43;;;17.80;99.90;;;;;;5077547;28;20288;-85
2023/07/18 00:13:51;;;;;;;9.45;9.15;;;17.80;99.90;;;;;;5080841;28;20283;-85
2023/07/18 00:16:19;;;;;;;9.88;9.57;;;17.80;99.90;;;;;;5082249;28;20854;-85
2023/07/18 00:18:48;;;;;;;9.82;9.52;;;17.80;99.90;;;;;;5085147;28;20233;-85
2023/07/18 00:21:15;;;;;;;9.70;9.40;;;17.70;99.90;;;;;;5082117;28;20226;-84
2023/07/18 00:23:43;;;;;;;10.00;9.70;;;17.60;99.90;;;;;;5082535;28;20230;-85
2023/07/18 00:26:11;;;;;;;10.30;10.00;;;17.50;99.90;;;;;;5083134;28;20280;-84
2023/07/18 00:28:39;;;;;;;10.13;9.82;;;17.40;99.90;;;;;;5082432;28;20234;-85
2023/07/18 00:31:06;;;;;;;9.90;9.60;;;17.40;99.90;;;;;;5082487;28;20245;-85
2023/07/18 00:33:34;;;;;;;9.80;9.50;;;17.30;99.90;;;;;;5084666;28;20325;-85
2023/07/18 00:36:03;;;;;;;9.15;8.90;;;17.20;99.90;;;;;;5086179;28;20230;-85
2023/07/18 00:38:30;;;;;;;9.65;9.35;;;17.20;99.90;;;;;;5093798;28;20209;-85
2023/07/18 00:40:59;;;;;;;9.82;9.52;;;17.20;99.90;;;;;;5095704;28;20318;-84
2023/07/18 00:43:26;;;;;;;9.77;9.48;;;17.20;99.90;;;;;;5083957;28;20241;-84
2023/07/18 00:45:54;;;;;;;9.68;9.38;;;17.20;99.90;;;;;;5084161;28;20732;-85
2023/07/18 00:48:21;;;;;;;8.93;8.73;;;17.20;99.90;;;;;;5083981;28;20234;-85
2023/07/18 00:50:49;;;;;;;9.38;9.07;;;17.20;99.90;;;;;;5083914;28;20234;-86
2023/07/18 00:53:18;;;;;;;8.95;8.75;;;17.20;99.90;;;;;;5083894;28;20221;-85
2023/07/18 00:55:46;;;;;;;9.43;9.13;;;17.10;99.90;;;;;;5084197;28;20226;-86
2023/07/18 00:58:14;;;;;;;9.43;9.13;;;17.10;99.90;;;;;;5091167;28;20206;-87
2023/07/18 01:00:42;;;;;;;9.50;9.20;;;17.10;99.90;;;;;;5096857;28;20257;-85
2023/07/18 01:03:09;;;;;;;9.90;9.60;;;17.10;99.90;;;;;;5087731;28;20234;-85
2023/07/18 01:05:39;;;;;;;9.52;9.23;;;17.10;99.90;;;;;;5087961;28;20268;-86
2023/07/18 01:08:06;;;;;;;9.70;9.40;;;17.10;99.90;;;;;;5088483;28;20298;-85
2023/07/18 01:10:38;;;;;;;9.82;9.52;;;17.10;99.90;;;;;;5086727;28;20249;-86
2023/07/18 01:13:06;;;;;;;9.70;9.40;;;17.10;99.90;;;;;;5086647;28;20276;-86
2023/07/18 01:15:37;;;;;;;9.57;9.27;;;17.00;99.90;;;;;;5085991;28;20317;-85
2023/07/18 01:18:08;;;;;;;9.60;9.30;;;17.00;99.90;;;;;;5085580;28;20238;-85
2023/07/18 01:20:37;;;;;;;9.55;9.25;;;17.00;99.90;;;;;;5086016;28;20272;-84
2023/07/18 01:23:09;;;;;;;9.48;9.18;;;17.00;99.90;;;;;;5084919;28;20233;-85
2023/07/18 01:25:37;;;;;;;9.52;9.23;;;17.00;99.90;;;;;;5085140;28;20325;-85
2023/07/18 01:28:06;;;;;;;9.40;9.10;;;16.90;99.90;;;;;;5085219;28;20280;-85
2023/07/18 01:30:34;;;;;;;9.40;9.10;;;16.90;99.90;;;;;;5086680;28;20230;-88
2023/07/18 01:33:02;;;;;;;9.45;9.15;;;16.90;99.90;;;;;;5095933;28;20230;-86
2023/07/18 01:35:30;;;;;;;9.00;8.80;;;16.90;99.90;;;;;;5082420;28;20305;-86
2023/07/18 01:37:58;;;;;;;9.40;9.10;;;16.90;99.90;;;;;;5084002;28;20276;-86
2023/07/18 01:40:28;;;;;;;9.48;9.18;;;16.80;99.90;;;;;;5084325;28;20232;-86
2023/07/18 01:42:57;;;;;;;9.45;9.15;;;16.80;99.90;;;;;;5083715;28;20264;-86
2023/07/18 01:45:27;;;;;;;9.60;9.30;;;16.80;99.90;;;;;;5083396;28;20234;-86
2023/07/18 01:47:56;;;;;;;9.70;9.40;;;16.80;99.90;;;;;;5084514;28;20234;-86
2023/07/18 01:50:24;;;;;;;10.00;9.70;;;16.80;99.90;;;;;;5084126;28;20298;-87
2023/07/18 01:52:52;;;;;;;10.10;9.80;;;16.70;99.90;;;;;;5084632;28;20231;-86
2023/07/18 01:55:20;;;;;;;9.90;9.60;;;16.70;99.90;;;;;;5083943;28;20241;-86
2023/07/18 01:57:50;;;;;;;9.60;9.30;;;16.60;99.90;;;;;;5085682;28;20240;-86
2023/07/18 02:00:20;;;;;;;9.60;9.30;;;16.60;99.90;;;;;;5094598;28;20299;-86
2023/07/18 02:02:51;;;;;;;9.48;9.18;;;16.60;99.90;;;;;;5087978;28;20272;-86
2023/07/18 02:05:22;;;;;;;9.40;9.10;;;16.60;99.90;;;;;;5218138;22;20197;-80
2023/07/18 02:08:01;;;;;;;9.30;9.00;;;16.60;99.90;;;;;;5129201;27;20225;-81
2023/07/18 02:10:29;;;;;;;8.98;8.77;;;16.60;99.90;;;;;;5127715;28;20254;-83
2023/07/18 02:13:01;;;;;;;9.30;9.00;;;16.70;99.90;;;;;;5123387;28;20271;-83
2023/07/18 02:15:34;;;;;;;9.20;8.90;;;16.70;99.90;;;;;;5107483;28;20236;-83
2023/07/18 02:18:04;;;;;;;9.38;9.07;;;16.70;99.90;;;;;;5103181;28;20233;-83
2023/07/18 02:20:33;;;;;;;9.70;9.40;;;16.70;99.90;;;;;;5102046;28;20229;-82
2023/07/18 02:23:04;;;;;;;9.77;9.48;;;16.60;99.90;;;;;;5103558;28;20244;-83
2023/07/18 02:25:31;;;;;;;10.20;9.90;;;16.50;99.90;;;;;;5103188;28;20291;-82
2023/07/18 02:28:00;;;;;;;10.02;9.73;;;16.40;99.90;;;;;;5103312;28;20233;-82
2023/07/18 02:30:32;;;;;;;9.82;9.52;;;16.20;99.90;;;;;;5106415;28;20288;-83
2023/07/18 02:33:00;;;;;;;9.82;9.52;;;16.10;99.90;;;;;;5106982;28;20229;-83
2023/07/18 02:35:35;;;;;;;9.80;9.50;;;16.10;99.90;;;;;;5102689;28;20261;-83
2023/07/18 02:38:08;;;;;;;9.63;9.32;;;16.20;99.90;;;;;;5102512;28;20233;-83
2023/07/18 02:43:58;;;;;;;9.70;9.40;;;16.30;99.90;;;;;;5100971;28;20229;-83
2023/07/18 02:46:43;;;;;;;9.60;9.30;;;16.30;99.90;;;;;;5102653;28;20313;-83
2023/07/18 02:52:58;;;;;;;9.50;9.20;;;16.20;99.90;;;;;;5102047;28;20221;-81
2023/07/18 02:58:50;;;;;;;10.07;9.77;;;16.10;99.90;;;;;;5100120;28;20281;-81
2023/07/18 03:01:56;;;;;;;10.32;10.02;;;16.10;99.90;;;;;;5115703;27;20289;-81
2023/07/18 03:05:07;;;;;;;10.45;10.15;;;16.10;99.90;;;;;;5120334;27;20240;-80
2023/07/18 03:08:17;;;;;;;9.90;9.60;;;16.00;99.90;;;;;;5120216;27;20213;-80
2023/07/18 03:10:59;;;;;;;10.20;9.90;;;15.90;99.90;;;;;;5100920;28;20319;-81
2023/07/18 03:13:56;;;;;;;10.30;10.00;;;15.90;99.90;;;;;;5100597;28;20225;-80
2023/07/18 03:17:05;;;;;;;10.40;10.10;;;15.80;99.90;;;;;;5101833;28;20257;-80
2023/07/18 03:22:58;;;;;;;10.60;10.30;;;15.60;99.90;;;;;;5100713;28;20287;-80
2023/07/18 03:26:01;;;;;;;10.70;10.40;;;15.60;99.90;;;;;;5102737;28;20240;-82
2023/07/18 03:29:11;;;;;;;10.65;10.35;;;15.50;99.90;;;;;;5102317;28;20279;-82
2023/07/18 03:32:28;;;;;;;10.50;10.20;;;15.40;99.90;;;;;;5101502;28;20233;-82
2023/07/18 03:38:37;;;;;;;10.55;10.25;;;15.40;99.90;;;;;;5102385;28;20226;-83
2023/07/18 03:44:41;;;;;;;10.52;10.23;;;15.60;99.90;;;;;;5101819;28;20224;-82
2023/07/18 03:47:41;;;;;;;10.27;9.98;;;15.60;99.90;;;;;;4996389;28;20247;-83
2023/07/18 03:50:26;;;;;;;10.23;9.93;;;15.60;99.90;;;;;;4999982;28;20237;-84
2023/07/18 03:53:26;;;;;;;10.20;9.90;;;15.60;99.90;;;;;;5085845;28;20235;-82
2023/07/18 04:03:02;;;;;;;;;;;;;;;;;;;;;
2023/07/18 14:39:48;;;;;;;10.50;10.20;;;32.40;99.90;;;;;;5048379;28;20239;-90
2023/07/18 14:42:23;;;;;;;10.70;10.40;;;32.40;99.90;;;;;;5048363;28;20227;-89
2023/07/18 15:31:03;;;;;;;11.07;10.77;;;34.70;99.90;;;;;;5038105;28;20266;-88
2023/07/18 15:37:39;;;;;;;11.05;10.75;;;34.60;99.90;;;;;;5014755;28;20362;-91
2023/07/18 15:40:35;;;;;;;10.90;10.60;;;34.40;99.90;;;;;;5000631;28;20232;-90
2023/07/18 15:43:22;;;;;;;11.02;10.73;;;33.90;99.90;;;;;;4995715;28;20229;-89
2023/07/18 15:46:52;;;;;;;10.95;10.65;;;33.60;99.90;;;;;;5000161;28;20327;-90
2023/07/18 16:13:23;;;;;;;10.60;10.30;;;33.30;99.90;;;;;;5017760;28;20289;-89
2023/07/18 16:16:13;;;;;;;10.57;10.27;;;33.20;99.90;;;;;;5019318;28;20239;-88
2023/07/18 16:22:19;;;;;;;10.73;10.43;;;33.50;99.90;;;;;;5013684;28;20251;-89
2023/07/18 16:25:04;;;;;;;10.63;10.32;;;33.80;99.90;;;;;;5018982;28;20266;-88
2023/07/18 17:35:23;;;;;;;10.30;10.00;;;34.10;99.90;;;;;;4925132;29;20252;-88
2023/07/18 17:57:53;;;;;;;10.32;10.02;;;34.50;99.50;;;;;;6229962;22;1487635;-87
2023/07/18 18:04:17;;;;;;;10.25;9.95;;;34.00;99.90;;;;;;6372399;22;20195;-84
2023/07/18 18:06:44;;;;;;;10.40;10.10;;;33.70;99.20;;;;;;6362271;22;20196;-86
2023/07/18 18:09:51;;;;;;;10.65;10.35;;;33.40;99.90;;;;;;6358908;22;20207;-86
2023/07/18 18:12:23;;;;;;;10.30;10.00;;;33.50;99.70;;;;;;6355914;22;20199;-85
2023/07/18 18:18:47;;;;;;;10.60;10.30;;;33.30;99.90;;;;;;6230829;23;20206;-84
2023/07/18 18:21:16;;;;;;;10.50;10.20;;;33.20;99.90;;;;;;6331153;22;20191;-83
2023/07/18 18:23:44;;;;;;;10.40;10.10;;;32.80;99.90;;;;;;6358338;22;20192;-85
2023/07/18 18:26:11;;;;;;;10.30;10.00;;;32.10;99.90;;;;;;6359513;22;20222;-84
2023/07/18 18:28:39;;;;;;;10.27;9.98;;;32.00;99.90;;;;;;6359875;22;20200;-86
2023/07/18 18:31:06;;;;;;;10.50;10.20;;;31.80;99.90;;;;;;6359950;22;20206;-85
2023/07/18 18:33:33;;;;;;;10.35;10.05;;;31.10;99.90;;;;;;6360921;22;20231;-85
2023/07/18 18:36:03;;;;;;;10.40;10.10;;;31.00;99.90;;;;;;6359502;22;20199;-86
2023/07/18 18:38:31;;;;;;;10.80;10.50;;;31.00;99.90;;;;;;6358780;22;20200;-85
2023/07/18 18:40:58;;;;;;;10.70;10.40;;;30.80;99.90;;;;;;6360076;22;20195;-84
2023/07/18 18:43:29;;;;;;;10.90;10.60;;;30.70;99.90;;;;;;6361193;22;20188;-85
2023/07/18 18:45:56;;;;;;;10.80;10.50;;;30.50;99.90;;;;;;6358062;22;20202;-85
2023/07/18 18:48:28;;;;;;;10.75;10.45;;;30.40;99.90;;;;;;6360380;22;20199;-85
2023/07/18 18:50:56;;;;;;;10.68;10.38;;;30.20;99.90;;;;;;6364677;22;20199;-85
2023/07/18 18:53:25;;;;;;;10.82;10.52;;;29.90;99.90;;;;;;6363355;22;20230;-82
2023/07/18 18:55:53;;;;;;;10.98;10.68;;;29.70;99.90;;;;;;6346797;22;20192;-82
2023/07/18 18:58:20;;;;;;;10.68;10.38;;;29.40;99.90;;;;;;6347005;22;20291;-83
2023/07/18 19:00:48;;;;;;;10.60;10.30;;;29.10;99.90;;;;;;6348006;22;20196;-81
2023/07/18 19:03:15;;;;;;;10.20;9.90;;;29.00;99.90;;;;;;6348818;22;20196;-82
2023/07/18 19:05:42;;;;;;;10.60;10.30;;;28.90;99.90;;;;;;6348745;22;20200;-82
2023/07/18 19:08:09;;;;;;;10.82;10.52;;;28.60;99.90;;;;;;6350361;22;20196;-82
2023/07/18 19:10:38;;;;;;;10.70;10.40;;;28.10;99.90;;;;;;6350865;22;20197;-82
2023/07/18 19:13:05;;;;;;;10.50;10.20;;;27.90;99.90;;;;;;6351497;22;20212;-82
2023/07/18 19:15:32;;;;;;;10.43;10.13;;;27.50;99.90;;;;;;6350459;22;20250;-82
2023/07/18 19:18:01;;;;;;;10.40;10.10;;;27.40;99.90;;;;;;6351064;22;20223;-82
2023/07/18 19:20:29;;;;;;;10.40;10.10;;;27.20;99.90;;;;;;6350348;22;20203;-83
2023/07/18 19:22:56;;;;;;;10.50;10.20;;;27.00;99.90;;;;;;6351149;22;20203;-82
2023/07/18 19:25:23;;;;;;;10.43;10.13;;;26.90;99.90;;;;;;6352598;22;20192;-84
2023/07/18 19:27:52;;;;;;;10.32;10.02;;;26.70;99.90;;;;;;6355078;22;20662;-84
2023/07/18 19:30:19;;;;;;;10.18;9.88;;;26.50;99.90;;;;;;6352937;22;20197;-86
2023/07/18 19:32:46;;;;;;;10.18;9.88;;;26.40;99.90;;;;;;6347343;22;20222;-86
2023/07/18 19:35:14;;;;;;;9.80;9.50;;;26.30;99.90;;;;;;6350461;22;20246;-86
2023/07/18 19:37:42;;;;;;;9.60;9.30;;;26.20;99.90;;;;;;6352565;22;20215;-86
2023/07/18 19:40:13;;;;;;;9.07;8.88;;;26.00;99.90;;;;;;6353700;22;20220;-87
2023/07/18 19:42:43;;;;;;;8.40;8.20;;;26.00;99.90;;;;;;6348913;22;20227;-86
2023/07/18 19:45:12;;;;;;;8.20;8.00;;;25.90;99.90;;;;;;6350584;22;20188;-85
2023/07/18 19:47:39;;;;;;;8.57;8.38;;;25.80;99.90;;;;;;6351271;22;20192;-86
2023/07/18 19:50:10;;;;;;;8.45;8.25;;;25.70;99.90;;;;;;6352580;22;20223;-86
2023/07/18 19:52:38;;;;;;;8.73;8.52;;;25.60;99.90;;;;;;6363468;22;20188;-85
2023/07/18 19:55:07;;;;;;;8.70;8.50;;;25.60;99.90;;;;;;6370821;22;20188;-85
2023/07/18 19:57:35;;;;;;;8.85;8.65;;;25.50;99.90;;;;;;6369278;22;20188;-83
2023/07/18 20:00:05;;;;;;;9.00;8.80;;;25.40;99.90;;;;;;6371830;22;20200;-84
2023/07/18 20:02:34;;;;;;;8.73;8.52;;;25.40;99.90;;;;;;6362772;22;20195;-83
2023/07/18 20:05:01;;;;;;;8.80;8.60;;;25.40;99.90;;;;;;6353651;22;20212;-86
2023/07/18 20:07:29;;;;;;;8.80;8.60;;;25.40;99.90;;;;;;6355775;22;20246;-85
2023/07/18 20:09:56;;;;;;;8.88;8.68;;;25.40;99.90;;;;;;6354654;22;20196;-86
2023/07/18 20:12:24;;;;;;;8.90;8.70;;;25.40;99.90;;;;;;6352396;22;20250;-87
2023/07/18 20:14:52;;;;;;;9.10;8.90;;;25.40;99.90;;;;;;6352811;22;20207;-85
2023/07/18 20:17:19;;;;;;;9.02;8.82;;;25.30;99.90;;;;;;6355375;22;20196;-86
2023/07/18 20:19:48;;;;;;;8.80;8.60;;;25.20;99.90;;;;;;6362737;22;20250;-84
2023/07/18 20:22:17;;;;;;;8.55;8.35;;;25.10;99.90;;;;;;6345161;22;20215;-74
2023/07/18 20:24:44;;;;;;;8.98;8.77;;;24.80;99.90;;;;;;6345154;22;20196;-76
2023/07/18 20:27:11;;;;;;;8.98;8.77;;;24.70;99.90;;;;;;6345999;22;20234;-74
2023/07/18 20:29:38;;;;;;;9.07;8.88;;;24.70;99.90;;;;;;6347121;22;20200;-75
2023/07/18 20:32:06;;;;;;;9.10;8.90;;;24.70;99.90;;;;;;6344902;22;20211;-74
2023/07/18 20:34:34;;;;;;;9.30;9.00;;;24.70;99.90;;;;;;6345472;22;20244;-76
2023/07/18 20:37:02;;;;;;;9.38;9.07;;;24.70;99.90;;;;;;6345042;22;20291;-73
2023/07/18 20:39:33;;;;;;;9.50;9.20;;;24.70;99.90;;;;;;6345797;22;20188;-73
2023/07/18 20:42:01;;;;;;;9.57;9.27;;;24.70;99.90;;;;;;6344789;22;20229;-74
2023/07/18 20:44:29;;;;;;;9.63;9.32;;;24.70;99.90;;;;;;6344763;22;20274;-73
2023/07/18 20:46:56;;;;;;;9.70;9.40;;;24.70;99.90;;;;;;6343494;22;20449;-74
2023/07/18 20:49:26;;;;;;;9.00;8.80;;;24.70;99.90;;;;;;6344735;22;20208;-74
2023/07/18 20:51:53;;;;;;;9.50;9.20;;;24.80;99.90;;;;;;6344757;22;20214;-75
2023/07/18 20:54:21;;;;;;;9.55;9.25;;;24.80;99.90;;;;;;6348568;22;20208;-75
2023/07/18 20:56:48;;;;;;;9.30;9.00;;;24.80;99.90;;;;;;6351177;22;20255;-74
2023/07/18 20:59:17;;;;;;;9.60;9.30;;;24.80;99.90;;;;;;6350126;22;20200;-74
2023/07/18 21:01:44;;;;;;;9.70;9.40;;;24.70;99.90;;;;;;6347388;22;20265;-74
2023/07/18 21:04:11;;;;;;;9.70;9.40;;;24.70;99.90;;;;;;6345481;22;20250;-75
2023/07/18 21:06:39;;;;;;;9.45;9.15;;;24.50;99.90;;;;;;6347390;22;20226;-75
2023/07/18 21:09:06;;;;;;;9.50;9.20;;;24.40;99.90;;;;;;6346003;22;20199;-76
2023/07/18 21:11:34;;;;;;;9.48;9.18;;;24.20;99.90;;;;;;6344341;22;20207;-79
2023/07/18 21:14:01;;;;;;;9.38;9.07;;;24.10;99.90;;;;;;6344462;22;20255;-74
2023/07/18 21:16:28;;;;;;;9.05;8.85;;;24.00;99.90;;;;;;6345138;22;20283;-74
2023/07/18 21:18:55;;;;;;;9.10;8.90;;;23.90;99.90;;;;;;6344862;22;20267;-74
2023/07/18 21:21:22;;;;;;;9.18;8.98;;;23.90;99.90;;;;;;6344151;22;20230;-73
2023/07/18 21:23:49;;;;;;;8.90;8.70;;;23.90;99.90;;;;;;6344562;22;20196;-75
2023/07/18 21:26:16;;;;;;;9.40;9.10;;;23.90;99.90;;;;;;6344706;22;20204;-75
2023/07/18 21:28:44;;;;;;;9.10;8.90;;;23.90;99.90;;;;;;6345086;22;20220;-74
2023/07/18 21:31:11;;;;;;;8.98;8.77;;;23.90;99.90;;;;;;6344377;22;20210;-74
2023/07/18 21:33:38;;;;;;;9.40;9.10;;;23.90;99.90;;;;;;6344935;22;20253;-75
2023/07/18 21:36:06;;;;;;;8.95;8.75;;;23.90;99.90;;;;;;6344949;22;20204;-75
2023/07/18 21:38:33;;;;;;;9.15;8.95;;;23.80;99.90;;;;;;6345134;22;20217;-74
2023/07/18 21:41:00;;;;;;;9.27;8.98;;;23.80;99.90;;;;;;6343309;22;20207;-75
2023/07/18 21:43:27;;;;;;;9.00;8.80;;;23.70;99.90;;;;;;6344506;22;20215;-75
2023/07/18 21:45:55;;;;;;;9.10;8.90;;;23.70;99.90;;;;;;6344495;22;20212;-74
2023/07/18 21:48:23;;;;;;;9.43;9.13;;;23.70;99.90;;;;;;6345017;22;20200;-75
2023/07/18 21:50:50;;;;;;;9.00;8.80;;;23.60;99.90;;;;;;6344072;22;20200;-74
2023/07/18 21:53:17;;;;;;;8.80;8.60;;;23.60;99.90;;;;;;6344813;22;20215;-75
2023/07/18 21:55:44;;;;;;;8.88;8.68;;;23.60;99.90;;;;;;6345583;22;20207;-74
2023/07/18 21:58:11;;;;;;;9.00;8.80;;;23.50;99.90;;;;;;6347552;22;20220;-75
2023/07/18 22:00:38;;;;;;;9.13;8.90;;;23.50;99.90;;;;;;6344024;22;20204;-75
2023/07/18 22:03:06;;;;;;;9.10;8.90;;;23.40;99.90;;;;;;6344283;22;20192;-74
2023/07/18 22:05:34;;;;;;;9.20;8.90;;;23.40;99.90;;;;;;6344340;22;20208;-75
2023/07/18 22:08:00;;;;;;;9.70;9.40;;;23.40;99.90;;;;;;6344145;22;20204;-74
2023/07/18 22:10:27;;;;;;;9.63;9.32;;;23.10;99.90;;;;;;6344277;22;20199;-75
2023/07/18 22:12:54;;;;;;;9.10;8.90;;;23.00;99.90;;;;;;6343658;22;20204;-74
2023/07/18 22:15:21;;;;;;;9.60;9.30;;;22.90;99.90;;;;;;6344240;22;20212;-75
2023/07/18 22:17:48;;;;;;;9.80;9.50;;;22.80;99.90;;;;;;6344546;22;20211;-74
2023/07/18 22:20:17;;;;;;;9.50;9.20;;;22.70;99.90;;;;;;6343845;22;20226;-73
2023/07/18 22:22:44;;;;;;;9.77;9.48;;;22.60;99.90;;;;;;6344347;22;20208;-75
2023/07/18 22:25:10;;;;;;;9.70;9.40;;;22.40;99.90;;;;;;6344135;22;20207;-75
2023/07/18 22:27:37;;;;;;;9.93;9.63;;;22.30;99.90;;;;;;6343769;22;20216;-74
2023/07/18 22:30:09;;;;;;;10.02;9.73;;;22.10;99.90;;;;;;6344489;22;20220;-74
2023/07/18 22:32:36;;;;;;;9.75;9.45;;;22.10;99.90;;;;;;6345628;22;20295;-75
2023/07/18 22:35:03;;;;;;;9.75;9.45;;;22.10;99.90;;;;;;6345178;22;20214;-73
2023/07/18 22:37:33;;;;;;;9.50;9.20;;;22.10;99.90;;;;;;6345449;22;20247;-74
2023/07/18 22:40:00;;;;;;;9.80;9.50;;;22.10;99.90;;;;;;6344621;22;20295;-75
2023/07/18 22:42:27;;;;;;;9.68;9.38;;;22.10;99.90;;;;;;6345595;22;20212;-74
2023/07/18 22:44:54;;;;;;;9.80;9.50;;;22.10;99.90;;;;;;6345608;22;20199;-74
2023/07/18 22:47:21;;;;;;;9.98;9.68;;;22.10;99.90;;;;;;6345806;22;20204;-74
2023/07/18 22:49:48;;;;;;;10.10;9.80;;;22.10;99.90;;;;;;6345169;22;20210;-74
2023/07/18 22:52:17;;;;;;;9.73;9.43;;;22.10;99.90;;;;;;6344722;22;20323;-75
2023/07/18 22:54:46;;;;;;;9.40;9.10;;;22.00;99.90;;;;;;6342719;22;20219;-74
2023/07/18 22:57:13;;;;;;;9.10;8.90;;;22.00;99.90;;;;;;6322900;22;20215;-74
2023/07/18 22:59:41;;;;;;;9.60;9.30;;;22.00;99.90;;;;;;6233300;23;20210;-74
2023/07/18 23:02:08;;;;;;;9.40;9.10;;;21.90;99.90;;;;;;6234603;23;20214;-73
2023/07/18 23:04:36;;;;;;;8.93;8.73;;;21.90;99.90;;;;;;6222764;22;20201;-74
2023/07/18 23:07:04;;;;;;;9.00;8.80;;;21.90;99.90;;;;;;6222899;23;20289;-74
2023/07/18 23:09:31;;;;;;;9.40;9.10;;;21.80;99.90;;;;;;6222363;23;20214;-74
2023/07/18 23:11:59;;;;;;;9.60;9.30;;;21.70;99.90;;;;;;6222234;23;20215;-74
2023/07/18 23:14:27;;;;;;;9.63;9.32;;;21.70;99.90;;;;;;6222779;23;20215;-74
2023/07/18 23:16:54;;;;;;;9.68;9.38;;;21.60;99.90;;;;;;6222675;23;20257;-74
2023/07/18 23:19:21;;;;;;;9.57;9.27;;;21.60;99.90;;;;;;6222477;23;20214;-74
2023/07/18 23:21:48;;;;;;;8.88;8.68;;;21.50;99.90;;;;;;6222513;23;20298;-74
2023/07/18 23:24:15;;;;;;;8.73;8.52;;;21.60;99.90;;;;;;6238597;23;20207;-74
2023/07/18 23:26:42;;;;;;;8.70;8.50;;;21.50;99.90;;;;;;6238623;23;20270;-74
2023/07/18 23:29:10;;;;;;;8.95;8.75;;;21.40;99.90;;;;;;6224726;23;20238;-74
2023/07/18 23:31:37;;;;;;;9.10;8.85;;;21.40;99.90;;;;;;6221851;23;20203;-74
2023/07/18 23:34:04;;;;;;;9.27;8.98;;;21.30;99.90;;;;;;6221908;23;20919;-74
2023/07/18 23:36:31;;;;;;;8.70;8.50;;;21.20;99.90;;;;;;6222352;23;20203;-74
2023/07/18 23:38:58;;;;;;;8.90;8.70;;;21.10;99.90;;;;;;6221938;23;20389;-74
2023/07/18 23:41:25;;;;;;;8.82;8.63;;;21.00;99.90;;;;;;6221455;23;20215;-74
2023/07/18 23:43:52;;;;;;;8.70;8.50;;;21.00;99.90;;;;;;6221989;23;20206;-74
2023/07/18 23:46:20;;;;;;;8.48;8.27;;;21.00;99.90;;;;;;6221999;23;20207;-74
2023/07/18 23:48:47;;;;;;;8.70;8.50;;;20.70;99.90;;;;;;6222077;23;20207;-74
2023/07/18 23:51:14;;;;;;;8.73;8.52;;;20.50;99.90;;;;;;6221564;23;20298;-74
2023/07/18 23:53:41;;;;;;;8.90;8.70;;;20.50;99.90;;;;;;6222198;23;20209;-74
2023/07/18 23:56:08;;;;;;;9.07;8.88;;;20.50;99.90;;;;;;6222634;23;20215;-74
2023/07/18 23:58:35;;;;;;;9.00;8.80;;;20.50;99.90;;;;;;6226295;23;20203;-74
